Bertrix, Belgium
Current Conditions -  °F | °C
As of 11:55 PM on Tuesday 27 Jan 2015 (Local Time) from EBFS Reporting Station
Broken Clouds Broken Clouds  
Wind Chill: 31°   Ceiling: 1200
Heat Index: 37°   Visibility: 4mi
Dew Point: 36°   Wind: 8mph
Humidity: 93%   Direction: 250°WSW
Pressure: 30.21"   Gusts: NA
Location:  49.86°N, 5.26°E
Report Text: EBFS 272255Z 25007KT 6000 SCT006 BKN012 03/02 Q1023 YLO
Loading
Personal Weather Stations






























Interactive Weather Map New forecast layout! Learn more

10-Day Weather Forecast

Advertisements
Track Severe Weather on mobile